B12 EFRO-EFTU
Flight info
| Callsign | B12 |
|---|---|
| Flight time | N/A |
| Altitude | 2500 |
| Route | NILJA KEMIJOKI RAIPPALUOTO NOUSU |
| Aircraft | HAWK/M-SDGIRY/C |
Departure
| Time | N/A |
|---|---|
| Airport | Rovaniemi Airport (EFRO) |
Arrival
| Time | 2026-04-30 20:56 |
|---|---|
| Airport | Turku Airport (EFTU) |
| Time | Latitude | Longitude | Altitude | Speed | Heading |
|---|---|---|---|---|---|
| 2026-04-30 19:18 | 66.57055 | 25.83189 | 658 ft | 0 kts | 262° |
| 2026-04-30 19:33 | 66.57054 | 25.83180 | 658 ft | 4 kts | 262° |
| 2026-04-30 19:34 | 66.57051 | 25.83137 | 660 ft | 4 kts | 241° |
| 2026-04-30 19:34 | 66.57018 | 25.83131 | 661 ft | 6 kts | 172° |
| 2026-04-30 19:34 | 66.56945 | 25.83166 | 659 ft | 1 kts | 155° |
| 2026-04-30 19:35 | 66.56935 | 25.83203 | 658 ft | 5 kts | 107° |
| 2026-04-30 19:35 | 66.56926 | 25.83253 | 657 ft | 0 kts | 124° |
| 2026-04-30 19:36 | 66.56926 | 25.83254 | 657 ft | 1 kts | 124° |
| 2026-04-30 19:36 | 66.56926 | 25.83255 | 657 ft | 0 kts | 124° |
| 2026-04-30 19:37 | 66.56921 | 25.83274 | 656 ft | 3 kts | 126° |
| 2026-04-30 19:37 | 66.56904 | 25.83300 | 653 ft | 2 kts | 162° |
| 2026-04-30 19:37 | 66.56901 | 25.83303 | 653 ft | 0 kts | 167° |
| 2026-04-30 19:37 | 66.56900 | 25.83303 | 653 ft | 0 kts | 167° |
| 2026-04-30 19:38 | 66.56891 | 25.83307 | 653 ft | 5 kts | 169° |
| 2026-04-30 19:38 | 66.56831 | 25.83330 | 649 ft | 11 kts | 172° |
| 2026-04-30 19:38 | 66.56755 | 25.83357 | 646 ft | 12 kts | 171° |
| 2026-04-30 19:38 | 66.56673 | 25.83383 | 645 ft | 11 kts | 185° |
| 2026-04-30 19:39 | 66.56631 | 25.83322 | 645 ft | 6 kts | 216° |
| 2026-04-30 19:39 | 66.56445 | 25.82969 | 646 ft | 74 kts | 217° |
| 2026-04-30 19:39 | 66.55798 | 25.81723 | 660 ft | 155 kts | 218° |
| 2026-04-30 19:39 | 66.54807 | 25.79860 | 961 ft | 205 kts | 212° |
| 2026-04-30 19:40 | 66.53522 | 25.77748 | 1134 ft | 233 kts | 214° |
| 2026-04-30 19:40 | 66.52104 | 25.75338 | 1157 ft | 256 kts | 214° |
| 2026-04-30 19:40 | 66.50552 | 25.73476 | 1060 ft | 243 kts | 191° |
| 2026-04-30 19:40 | 66.48943 | 25.73681 | 1075 ft | 232 kts | 163° |
| 2026-04-30 19:41 | 66.47439 | 25.74988 | 1083 ft | 227 kts | 161° |
| 2026-04-30 19:41 | 66.45984 | 25.76419 | 1017 ft | 225 kts | 156° |
| 2026-04-30 19:41 | 66.44539 | 25.78051 | 940 ft | 230 kts | 156° |
| 2026-04-30 19:41 | 66.43096 | 25.79711 | 1021 ft | 227 kts | 154° |
| 2026-04-30 19:42 | 66.41708 | 25.81681 | 999 ft | 231 kts | 149° |
| 2026-04-30 19:42 | 66.40348 | 25.83833 | 1007 ft | 232 kts | 147° |
| 2026-04-30 19:42 | 66.38996 | 25.86054 | 1042 ft | 232 kts | 147° |
| 2026-04-30 19:42 | 66.37632 | 25.88296 | 1029 ft | 237 kts | 147° |
| 2026-04-30 19:43 | 66.36180 | 25.90287 | 1038 ft | 240 kts | 163° |
| 2026-04-30 19:43 | 66.34532 | 25.90092 | 969 ft | 244 kts | 206° |
| 2026-04-30 19:43 | 66.33433 | 25.87001 | 1007 ft | 241 kts | 242° |
| 2026-04-30 19:44 | 66.31938 | 25.79511 | 1016 ft | 243 kts | 245° |
| 2026-04-30 19:44 | 66.31262 | 25.75650 | 1012 ft | 244 kts | 248° |
| 2026-04-30 19:44 | 66.30649 | 25.71730 | 1034 ft | 244 kts | 249° |
| 2026-04-30 19:44 | 66.30069 | 25.67755 | 1022 ft | 245 kts | 252° |
| 2026-04-30 19:45 | 66.29531 | 25.63725 | 991 ft | 247 kts | 251° |
| 2026-04-30 19:45 | 66.28990 | 25.59690 | 917 ft | 251 kts | 252° |
| 2026-04-30 19:45 | 66.28668 | 25.55426 | 818 ft | 255 kts | 268° |
| 2026-04-30 19:45 | 66.28509 | 25.51049 | 830 ft | 254 kts | 257° |
| 2026-04-30 19:46 | 66.27843 | 25.47016 | 827 ft | 254 kts | 240° |
| 2026-04-30 19:46 | 66.26927 | 25.43304 | 883 ft | 251 kts | 237° |
| 2026-04-30 19:46 | 66.25961 | 25.39573 | 630 ft | 262 kts | 237° |
| 2026-04-30 19:46 | 66.24718 | 25.36318 | 485 ft | 267 kts | 210° |
| 2026-04-30 19:47 | 66.23009 | 25.34623 | 413 ft | 268 kts | 191° |
| 2026-04-30 19:47 | 66.21779 | 25.34389 | 407 ft | 265 kts | 189° |
| 2026-04-30 19:47 | 66.20078 | 25.30646 | 494 ft | 249 kts | 215° |
| 2026-04-30 19:47 | 66.18615 | 25.28490 | 537 ft | 243 kts | 217° |
| 2026-04-30 19:48 | 66.17301 | 25.25950 | 465 ft | 242 kts | 224° |
| 2026-04-30 19:48 | 66.16598 | 25.22314 | 439 ft | 239 kts | 264° |
| 2026-04-30 19:48 | 66.16440 | 25.18240 | 397 ft | 239 kts | 262° |
| 2026-04-30 19:48 | 66.16066 | 25.14231 | 328 ft | 239 kts | 246° |
| 2026-04-30 19:49 | 66.14840 | 25.11986 | 431 ft | 226 kts | 197° |
| 2026-04-30 19:49 | 66.14004 | 25.04861 | 453 ft | 262 kts | 265° |
| 2026-04-30 19:49 | 66.13380 | 25.00403 | 483 ft | 299 kts | 227° |
| 2026-04-30 19:50 | 66.11535 | 24.97684 | 699 ft | 326 kts | 198° |
| 2026-04-30 19:50 | 66.09350 | 24.96849 | 747 ft | 312 kts | 178° |
| 2026-04-30 19:50 | 66.07233 | 24.97508 | 819 ft | 299 kts | 173° |
| 2026-04-30 19:50 | 66.05192 | 24.97839 | 819 ft | 290 kts | 182° |
| 2026-04-30 19:51 | 66.03180 | 24.97853 | 681 ft | 288 kts | 180° |
| 2026-04-30 19:51 | 66.01174 | 24.97896 | 573 ft | 286 kts | 180° |
| 2026-04-30 19:51 | 65.99207 | 24.97884 | 562 ft | 281 kts | 181° |
| 2026-04-30 19:51 | 65.97279 | 24.97897 | 466 ft | 280 kts | 180° |
| 2026-04-30 19:52 | 65.95350 | 24.98020 | 541 ft | 272 kts | 178° |
| 2026-04-30 19:52 | 65.93489 | 24.98187 | 660 ft | 264 kts | 178° |
| 2026-04-30 19:52 | 65.91687 | 24.98357 | 771 ft | 256 kts | 179° |
| 2026-04-30 19:52 | 65.89914 | 24.98505 | 813 ft | 253 kts | 179° |
| 2026-04-30 19:53 | 65.88156 | 24.98637 | 849 ft | 251 kts | 180° |
| 2026-04-30 19:53 | 65.86407 | 24.98447 | 822 ft | 252 kts | 187° |
| 2026-04-30 19:53 | 65.84644 | 24.97892 | 690 ft | 257 kts | 188° |
| 2026-04-30 19:53 | 65.82880 | 24.97203 | 709 ft | 256 kts | 191° |
| 2026-04-30 19:54 | 65.81119 | 24.96383 | 603 ft | 260 kts | 192° |
| 2026-04-30 19:54 | 65.79374 | 24.95321 | 495 ft | 263 kts | 193° |
| 2026-04-30 19:54 | 65.77546 | 24.94858 | 426 ft | 265 kts | 183° |
| 2026-04-30 19:54 | 65.75723 | 24.94594 | 518 ft | 260 kts | 185° |
| 2026-04-30 19:55 | 65.73932 | 24.94326 | 522 ft | 258 kts | 183° |
| 2026-04-30 19:55 | 65.72159 | 24.94157 | 550 ft | 257 kts | 182° |
| 2026-04-30 19:55 | 65.70421 | 24.94119 | 499 ft | 258 kts | 181° |
| 2026-04-30 19:55 | 65.68643 | 24.94097 | 611 ft | 254 kts | 182° |
| 2026-04-30 19:56 | 65.66864 | 24.93971 | 519 ft | 257 kts | 182° |
| 2026-04-30 19:56 | 65.65057 | 24.93889 | 374 ft | 263 kts | 181° |
| 2026-04-30 19:56 | 65.63195 | 24.93723 | 335 ft | 270 kts | 188° |
| 2026-04-30 19:56 | 65.61377 | 24.92594 | 173 ft | 271 kts | 192° |
| 2026-04-30 19:57 | 65.59696 | 24.92691 | 1170 ft | 223 kts | 178° |
| 2026-04-30 19:57 | 65.58104 | 24.92903 | 990 ft | 231 kts | 180° |
| 2026-04-30 19:57 | 65.56518 | 24.92616 | 927 ft | 229 kts | 206° |
| 2026-04-30 19:57 | 65.55237 | 24.90422 | 883 ft | 228 kts | 220° |
| 2026-04-30 19:58 | 65.53862 | 24.88427 | 694 ft | 244 kts | 192° |
| 2026-04-30 19:58 | 65.52107 | 24.88808 | 380 ft | 265 kts | 159° |
| 2026-04-30 19:58 | 65.50490 | 24.90629 | 976 ft | 252 kts | 155° |
| 2026-04-30 19:58 | 65.48935 | 24.92505 | 1360 ft | 247 kts | 154° |
| 2026-04-30 19:59 | 65.47323 | 24.94477 | 1095 ft | 269 kts | 155° |
| 2026-04-30 19:59 | 65.45570 | 24.96206 | 1136 ft | 276 kts | 165° |
| 2026-04-30 19:59 | 65.41649 | 24.98161 | 1015 ft | 298 kts | 171° |
| 2026-04-30 20:00 | 65.39580 | 24.99213 | 1019 ft | 306 kts | 169° |
| 2026-04-30 20:00 | 65.37525 | 25.00268 | 1097 ft | 305 kts | 170° |
| 2026-04-30 20:00 | 65.35422 | 25.01289 | 1014 ft | 311 kts | 171° |
| 2026-04-30 20:00 | 65.33280 | 25.02241 | 973 ft | 310 kts | 172° |
| 2026-04-30 20:01 | 65.28924 | 25.03390 | 1165 ft | 316 kts | 186° |
| 2026-04-30 20:01 | 65.26792 | 25.02245 | 1093 ft | 320 kts | 202° |
| 2026-04-30 20:01 | 65.24707 | 25.00314 | 1083 ft | 323 kts | 204° |
| 2026-04-30 20:02 | 65.20257 | 24.95807 | 1374 ft | 416 kts | 205° |
| 2026-04-30 20:02 | 65.17404 | 24.92168 | 1147 ft | 514 kts | 218° |
| 2026-04-30 20:03 | 65.13295 | 24.77314 | 884 ft | 548 kts | 244° |
| 2026-04-30 20:03 | 65.11611 | 24.69177 | 899 ft | 547 kts | 245° |
| 2026-04-30 20:03 | 65.10042 | 24.61106 | 1073 ft | 547 kts | 246° |
| 2026-04-30 20:03 | 65.08346 | 24.53000 | 1228 ft | 548 kts | 241° |
| 2026-04-30 20:04 | 65.06091 | 24.45675 | 976 ft | 554 kts | 229° |
| 2026-04-30 20:04 | 65.03192 | 24.39661 | 813 ft | 551 kts | 218° |
| 2026-04-30 20:04 | 65.00130 | 24.34225 | 943 ft | 552 kts | 217° |
| 2026-04-30 20:05 | 64.93874 | 24.23820 | 1041 ft | 553 kts | 216° |
| 2026-04-30 20:05 | 64.91122 | 24.17558 | 919 ft | 552 kts | 234° |
| 2026-04-30 20:05 | 64.87597 | 24.01599 | 977 ft | 549 kts | 244° |
| 2026-04-30 20:06 | 64.86497 | 23.96235 | 896 ft | 550 kts | 245° |
| 2026-04-30 20:06 | 64.84575 | 23.88475 | 854 ft | 550 kts | 235° |
| 2026-04-30 20:06 | 64.82119 | 23.81559 | 861 ft | 550 kts | 229° |
| 2026-04-30 20:06 | 64.79549 | 23.74883 | 851 ft | 551 kts | 228° |
| 2026-04-30 20:07 | 64.76903 | 23.68338 | 820 ft | 551 kts | 227° |
| 2026-04-30 20:07 | 64.74237 | 23.61894 | 1114 ft | 549 kts | 226° |
| 2026-04-30 20:07 | 64.68842 | 23.49248 | 941 ft | 551 kts | 225° |
| 2026-04-30 20:08 | 64.66076 | 23.43013 | 976 ft | 554 kts | 224° |
| 2026-04-30 20:08 | 64.63223 | 23.36956 | 647 ft | 555 kts | 222° |
| 2026-04-30 20:08 | 64.60322 | 23.31033 | 642 ft | 553 kts | 221° |
| 2026-04-30 20:08 | 64.57406 | 23.25172 | 679 ft | 552 kts | 221° |
| 2026-04-30 20:09 | 64.54476 | 23.19389 | 762 ft | 552 kts | 221° |
| 2026-04-30 20:09 | 64.51514 | 23.13675 | 860 ft | 553 kts | 220° |
| 2026-04-30 20:09 | 64.45513 | 23.02507 | 907 ft | 554 kts | 219° |
| 2026-04-30 20:10 | 64.39439 | 22.91543 | 914 ft | 557 kts | 219° |
| 2026-04-30 20:10 | 64.36321 | 22.86131 | 1014 ft | 561 kts | 218° |
| 2026-04-30 20:10 | 64.33160 | 22.80838 | 1040 ft | 562 kts | 217° |
| 2026-04-30 20:11 | 64.26711 | 22.70564 | 827 ft | 564 kts | 215° |
| 2026-04-30 20:11 | 64.23500 | 22.65606 | 753 ft | 561 kts | 215° |
| 2026-04-30 20:11 | 64.20276 | 22.60551 | 831 ft | 560 kts | 216° |
| 2026-04-30 20:12 | 64.14001 | 22.49872 | 978 ft | 564 kts | 220° |
| 2026-04-30 20:12 | 64.10886 | 22.44393 | 1004 ft | 564 kts | 218° |
| 2026-04-30 20:12 | 64.07737 | 22.39004 | 1027 ft | 564 kts | 218° |
| 2026-04-30 20:13 | 64.04614 | 22.33583 | 1039 ft | 564 kts | 219° |
| 2026-04-30 20:13 | 64.01519 | 22.28226 | 1050 ft | 564 kts | 218° |
| 2026-04-30 20:13 | 63.98365 | 22.22887 | 1053 ft | 564 kts | 218° |
| 2026-04-30 20:13 | 63.95221 | 22.17518 | 1050 ft | 563 kts | 219° |
| 2026-04-30 20:14 | 63.92088 | 22.12150 | 1044 ft | 563 kts | 218° |
| 2026-04-30 20:14 | 63.88939 | 22.06827 | 1048 ft | 564 kts | 218° |
| 2026-04-30 20:14 | 63.85790 | 22.01487 | 1057 ft | 564 kts | 218° |
| 2026-04-30 20:14 | 63.82649 | 21.96164 | 1056 ft | 565 kts | 218° |
| 2026-04-30 20:15 | 63.79487 | 21.90853 | 1056 ft | 565 kts | 218° |
| 2026-04-30 20:15 | 63.76327 | 21.85521 | 1056 ft | 565 kts | 218° |
| 2026-04-30 20:15 | 63.73213 | 21.80279 | 1058 ft | 565 kts | 218° |
| 2026-04-30 20:15 | 63.70044 | 21.75005 | 1064 ft | 565 kts | 218° |
| 2026-04-30 20:16 | 63.66881 | 21.69730 | 1060 ft | 566 kts | 218° |
| 2026-04-30 20:16 | 63.63721 | 21.64421 | 1047 ft | 565 kts | 218° |
| 2026-04-30 20:16 | 63.60555 | 21.59134 | 1059 ft | 565 kts | 217° |
| 2026-04-30 20:16 | 63.57179 | 21.54768 | 1056 ft | 567 kts | 207° |
| 2026-04-30 20:17 | 63.53570 | 21.51163 | 1066 ft | 567 kts | 205° |
| 2026-04-30 20:17 | 63.49976 | 21.47463 | 1066 ft | 567 kts | 206° |
| 2026-04-30 20:17 | 63.46248 | 21.44519 | 1063 ft | 570 kts | 195° |
| 2026-04-30 20:17 | 63.42360 | 21.42669 | 1073 ft | 570 kts | 193° |
| 2026-04-30 20:18 | 63.38705 | 21.40895 | 1073 ft | 486 kts | 194° |
| 2026-04-30 20:18 | 63.35659 | 21.39437 | 1074 ft | 440 kts | 194° |
| 2026-04-30 20:18 | 63.32454 | 21.37099 | 1072 ft | 530 kts | 206° |
| 2026-04-30 20:18 | 63.28996 | 21.33364 | 1402 ft | 564 kts | 209° |
| 2026-04-30 20:19 | 63.26505 | 21.26967 | 1487 ft | 551 kts | 249° |
| 2026-04-30 20:19 | 63.24960 | 21.19384 | 1471 ft | 496 kts | 242° |
| 2026-04-30 20:19 | 63.23417 | 21.13426 | 1392 ft | 377 kts | 243° |
| 2026-04-30 20:19 | 63.22416 | 21.08125 | 854 ft | 354 kts | 289° |
| 2026-04-30 20:20 | 63.24165 | 21.05385 | 1100 ft | 294 kts | 288° |
| 2026-04-30 20:20 | 63.23921 | 21.00723 | 1349 ft | 338 kts | 257° |
| 2026-04-30 20:20 | 63.23230 | 20.95255 | 1481 ft | 406 kts | 263° |
| 2026-04-30 20:20 | 63.22932 | 20.88371 | 1606 ft | 502 kts | 263° |
| 2026-04-30 20:21 | 63.22165 | 20.80666 | 1821 ft | 457 kts | 258° |
| 2026-04-30 20:21 | 63.21475 | 20.73461 | 1698 ft | 491 kts | 259° |
| 2026-04-30 20:21 | 63.20173 | 20.66515 | 1567 ft | 510 kts | 239° |
| 2026-04-30 20:21 | 63.17964 | 20.60857 | 1514 ft | 472 kts | 221° |
| 2026-04-30 20:22 | 63.15372 | 20.56661 | 1560 ft | 456 kts | 214° |
| 2026-04-30 20:22 | 63.12581 | 20.53551 | 1552 ft | 456 kts | 203° |
| 2026-04-30 20:22 | 63.09580 | 20.51558 | 1547 ft | 441 kts | 194° |
| 2026-04-30 20:22 | 63.06626 | 20.50175 | 1547 ft | 438 kts | 193° |
| 2026-04-30 20:23 | 63.03581 | 20.48708 | 1541 ft | 442 kts | 194° |
| 2026-04-30 20:23 | 63.00888 | 20.47456 | 3209 ft | 363 kts | 194° |
| 2026-04-30 20:23 | 62.98151 | 20.47403 | 1107 ft | 467 kts | 164° |
| 2026-04-30 20:23 | 62.94728 | 20.49465 | 1299 ft | 553 kts | 167° |
| 2026-04-30 20:24 | 62.90834 | 20.50956 | 1305 ft | 576 kts | 178° |
| 2026-04-30 20:24 | 62.86872 | 20.49947 | 1323 ft | 573 kts | 195° |
| 2026-04-30 20:24 | 62.83019 | 20.47725 | 1332 ft | 573 kts | 193° |
| 2026-04-30 20:24 | 62.79026 | 20.47140 | 1346 ft | 576 kts | 181° |
| 2026-04-30 20:25 | 62.71327 | 20.46977 | 1351 ft | 575 kts | 182° |
| 2026-04-30 20:25 | 62.67333 | 20.46846 | 1348 ft | 575 kts | 182° |
| 2026-04-30 20:26 | 62.59347 | 20.46609 | 1354 ft | 574 kts | 181° |
| 2026-04-30 20:26 | 62.51342 | 20.46355 | 1343 ft | 573 kts | 182° |
| 2026-04-30 20:26 | 62.47348 | 20.46229 | 1347 ft | 574 kts | 182° |
| 2026-04-30 20:27 | 62.39431 | 20.44568 | 1349 ft | 573 kts | 189° |
| 2026-04-30 20:27 | 62.31526 | 20.42317 | 1356 ft | 569 kts | 189° |
| 2026-04-30 20:28 | 62.23808 | 20.40086 | 1356 ft | 555 kts | 189° |
| 2026-04-30 20:28 | 62.16184 | 20.37881 | 1362 ft | 555 kts | 189° |
| 2026-04-30 20:29 | 62.08465 | 20.36440 | 1348 ft | 558 kts | 175° |
| 2026-04-30 20:30 | 61.98930 | 20.49251 | 1360 ft | 559 kts | 122° |
| 2026-04-30 20:30 | 61.97700 | 20.72874 | 1366 ft | 547 kts | 69° |
| 2026-04-30 20:31 | 62.05512 | 20.88814 | 1364 ft | 533 kts | 16° |
| 2026-04-30 20:32 | 62.15987 | 20.84718 | 1362 ft | 527 kts | 323° |
| 2026-04-30 20:32 | 62.20011 | 20.71912 | 1357 ft | 530 kts | 287° |
| 2026-04-30 20:33 | 62.20421 | 20.64061 | 1354 ft | 533 kts | 269° |
| 2026-04-30 20:33 | 62.17834 | 20.49260 | 1358 ft | 544 kts | 234° |
| 2026-04-30 20:33 | 62.15098 | 20.43775 | 1355 ft | 549 kts | 217° |
| 2026-04-30 20:34 | 62.07807 | 20.38468 | 1373 ft | 572 kts | 191° |
| 2026-04-30 20:34 | 61.99913 | 20.35818 | 1371 ft | 574 kts | 189° |
| 2026-04-30 20:35 | 61.95952 | 20.34757 | 1370 ft | 574 kts | 185° |
| 2026-04-30 20:35 | 61.91970 | 20.35367 | 1347 ft | 577 kts | 168° |
| 2026-04-30 20:35 | 61.84559 | 20.41743 | 1387 ft | 577 kts | 156° |
| 2026-04-30 20:36 | 61.80866 | 20.45143 | 1381 ft | 576 kts | 156° |
| 2026-04-30 20:36 | 61.77364 | 20.48461 | 1380 ft | 576 kts | 156° |
| 2026-04-30 20:36 | 61.70042 | 20.55400 | 1377 ft | 576 kts | 156° |
| 2026-04-30 20:37 | 61.66433 | 20.58847 | 1376 ft | 576 kts | 156° |
| 2026-04-30 20:37 | 61.62769 | 20.62309 | 1377 ft | 576 kts | 156° |
| 2026-04-30 20:37 | 61.59108 | 20.65774 | 1377 ft | 576 kts | 155° |
| 2026-04-30 20:37 | 61.55439 | 20.69249 | 1368 ft | 576 kts | 156° |
| 2026-04-30 20:38 | 61.51786 | 20.72670 | 1372 ft | 575 kts | 156° |
| 2026-04-30 20:38 | 61.48179 | 20.76059 | 1380 ft | 575 kts | 156° |
| 2026-04-30 20:38 | 61.44511 | 20.79513 | 1379 ft | 576 kts | 156° |
| 2026-04-30 20:39 | 61.37189 | 20.86357 | 1386 ft | 575 kts | 155° |
| 2026-04-30 20:39 | 61.33534 | 20.89773 | 1375 ft | 575 kts | 156° |
| 2026-04-30 20:39 | 61.29873 | 20.93162 | 1379 ft | 575 kts | 156° |
| 2026-04-30 20:40 | 61.22567 | 20.99937 | 1388 ft | 575 kts | 156° |
| 2026-04-30 20:40 | 61.18908 | 21.03356 | 1374 ft | 575 kts | 156° |
| 2026-04-30 20:40 | 61.15395 | 21.06616 | 1376 ft | 504 kts | 156° |
| 2026-04-30 20:41 | 61.09987 | 21.11641 | 1380 ft | 369 kts | 156° |
| 2026-04-30 20:41 | 61.07785 | 21.13690 | 1380 ft | 327 kts | 156° |
| 2026-04-30 20:41 | 61.05808 | 21.15528 | 1380 ft | 296 kts | 156° |
| 2026-04-30 20:41 | 61.04010 | 21.17199 | 1383 ft | 272 kts | 156° |
| 2026-04-30 20:42 | 61.02323 | 21.18767 | 1384 ft | 262 kts | 156° |
| 2026-04-30 20:42 | 61.00663 | 21.20303 | 1390 ft | 264 kts | 156° |
| 2026-04-30 20:42 | 60.97292 | 21.23412 | 1389 ft | 263 kts | 156° |
| 2026-04-30 20:43 | 60.95606 | 21.24968 | 1391 ft | 267 kts | 156° |
| 2026-04-30 20:43 | 60.93926 | 21.26515 | 1368 ft | 269 kts | 156° |
| 2026-04-30 20:43 | 60.92216 | 21.28091 | 1348 ft | 269 kts | 156° |
| 2026-04-30 20:44 | 60.89047 | 21.31814 | 1335 ft | 268 kts | 138° |
| 2026-04-30 20:44 | 60.87795 | 21.34640 | 1341 ft | 267 kts | 128° |
| 2026-04-30 20:44 | 60.85490 | 21.40586 | 1337 ft | 266 kts | 126° |
| 2026-04-30 20:45 | 60.83232 | 21.46594 | 1334 ft | 266 kts | 126° |
| 2026-04-30 20:45 | 60.82110 | 21.49602 | 1334 ft | 266 kts | 126° |
| 2026-04-30 20:45 | 60.80988 | 21.52613 | 1337 ft | 266 kts | 126° |
| 2026-04-30 20:46 | 60.77621 | 21.61595 | 1330 ft | 266 kts | 126° |
| 2026-04-30 20:46 | 60.76491 | 21.64588 | 1331 ft | 265 kts | 126° |
| 2026-04-30 20:47 | 60.74278 | 21.70421 | 1335 ft | 265 kts | 126° |
| 2026-04-30 20:47 | 60.73154 | 21.73413 | 1335 ft | 265 kts | 124° |
| 2026-04-30 20:48 | 60.70995 | 21.79522 | 1329 ft | 266 kts | 123° |
| 2026-04-30 20:48 | 60.69923 | 21.82615 | 1320 ft | 265 kts | 123° |
| 2026-04-30 20:48 | 60.68842 | 21.85669 | 1320 ft | 265 kts | 124° |
| 2026-04-30 20:48 | 60.67749 | 21.88710 | 1317 ft | 265 kts | 124° |
| 2026-04-30 20:49 | 60.66668 | 21.91759 | 1316 ft | 265 kts | 123° |
| 2026-04-30 20:49 | 60.65597 | 21.94811 | 1311 ft | 265 kts | 123° |
| 2026-04-30 20:49 | 60.64606 | 21.97962 | 1311 ft | 263 kts | 117° |
| 2026-04-30 20:50 | 60.62981 | 22.04638 | 1199 ft | 266 kts | 112° |
| 2026-04-30 20:50 | 60.62223 | 22.08067 | 968 ft | 271 kts | 112° |
| 2026-04-30 20:50 | 60.61454 | 22.11585 | 849 ft | 270 kts | 113° |
| 2026-04-30 20:50 | 60.60681 | 22.15022 | 812 ft | 265 kts | 113° |
| 2026-04-30 20:51 | 60.59919 | 22.18388 | 797 ft | 258 kts | 114° |
| 2026-04-30 20:51 | 60.59414 | 22.25484 | 623 ft | 249 kts | 83° |
| 2026-04-30 20:51 | 60.59555 | 22.28940 | 673 ft | 243 kts | 83° |
| 2026-04-30 20:52 | 60.59715 | 22.32378 | 578 ft | 243 kts | 82° |
| 2026-04-30 20:52 | 60.59858 | 22.35822 | 621 ft | 246 kts | 94° |
| 2026-04-30 20:52 | 60.58103 | 22.40001 | 608 ft | 244 kts | 159° |
| 2026-04-30 20:53 | 60.56466 | 22.40865 | 594 ft | 243 kts | 170° |
| 2026-04-30 20:53 | 60.54870 | 22.41523 | 574 ft | 232 kts | 169° |
| 2026-04-30 20:53 | 60.53366 | 22.41378 | 622 ft | 214 kts | 210° |
| 2026-04-30 20:54 | 60.52066 | 22.37029 | 610 ft | 146 kts | 260° |
| 2026-04-30 20:54 | 60.51853 | 22.35148 | 525 ft | 128 kts | 259° |
| 2026-04-30 20:54 | 60.51724 | 22.33417 | 474 ft | 125 kts | 266° |
| 2026-04-30 20:55 | 60.51559 | 22.29735 | 293 ft | 133 kts | 266° |
| 2026-04-30 20:55 | 60.51477 | 22.27898 | 152 ft | 126 kts | 266° |
| 2026-04-30 20:55 | 60.51421 | 22.26479 | 142 ft | 63 kts | 265° |
| 2026-04-30 20:56 | 60.51374 | 22.25466 | 148 ft | 18 kts | 259° |
| 2026-04-30 20:56 | 60.51310 | 22.25276 | 146 ft | 17 kts | 204° |
| 2026-04-30 20:56 | 60.51203 | 22.25480 | 148 ft | 11 kts | 86° |
| 2026-04-30 20:57 | 60.51210 | 22.25639 | 152 ft | 12 kts | 85° |
| 2026-04-30 20:57 | 60.51219 | 22.25837 | 152 ft | 16 kts | 85° |
| 2026-04-30 20:57 | 60.51230 | 22.26061 | 153 ft | 15 kts | 80° |
| 2026-04-30 20:58 | 60.51301 | 22.26546 | 143 ft | 20 kts | 83° |
| 2026-04-30 20:58 | 60.51312 | 22.26812 | 146 ft | 17 kts | 85° |
| 2026-04-30 20:58 | 60.51323 | 22.27051 | 147 ft | 17 kts | 85° |
| 2026-04-30 20:58 | 60.51333 | 22.27281 | 152 ft | 15 kts | 85° |
| 2026-04-30 20:59 | 60.51352 | 22.27717 | 150 ft | 16 kts | 84° |
| 2026-04-30 20:59 | 60.51362 | 22.27939 | 148 ft | 16 kts | 84° |
| 2026-04-30 21:00 | 60.51383 | 22.28425 | 141 ft | 17 kts | 84° |
| 2026-04-30 21:00 | 60.51335 | 22.28565 | 141 ft | 10 kts | 180° |
| 2026-04-30 21:01 | 60.51259 | 22.28470 | 148 ft | 7 kts | 279° |
| 2026-04-30 21:01 | 60.51301 | 22.28460 | 145 ft | 5 kts | 28° |
| 2026-04-30 21:01 | 60.51304 | 22.28463 | 144 ft | 0 kts | 27° |